Time;durP1;ratioP1;P1;durP2;ratioP2;P2;SDS_P1;SDS_P2;PMS_P1;PMS_P2;Temp;Humidity;BMP_temperature;BMP_pressure;BME280_temperature;BME280_humidity;BME280_pressure;Samples;Min_cycle;Max_cycle;Signal;HPM_P1;HPM_P2
2024/01/27 00:01:14;;;;;;;26.13;8.53;;;;;;;;;;5074000;28;20017;-63
2024/01/27 00:03:39;;;;;;;25.67;8.07;;;;;;;;;;5072183;28;20438;-63
2024/01/27 00:06:04;;;;;;;29.70;8.10;;;;;;;;;;5072373;28;21049;-63
2024/01/27 00:08:29;;;;;;;58.38;12.38;;;;;;;;;;5072494;28;20419;-63
2024/01/27 00:10:54;;;;;;;27.85;10.18;;;;;;;;;;5073222;28;20025;-63
2024/01/27 00:13:20;;;;;;;33.58;11.50;;;;;;;;;;5072579;28;20021;-62
2024/01/27 00:15:45;;;;;;;23.70;10.40;;;;;;;;;;5073361;28;20387;-63
2024/01/27 00:18:10;;;;;;;27.10;10.93;;;;;;;;;;5073355;28;20472;-63
2024/01/27 00:20:36;;;;;;;36.95;9.68;;;;;;;;;;5071848;28;20454;-63
2024/01/27 00:23:01;;;;;;;45.85;9.07;;;;;;;;;;5073531;28;20027;-63
2024/01/27 00:25:27;;;;;;;44.30;11.32;;;;;;;;;;5071526;28;20036;-63
2024/01/27 00:27:52;;;;;;;23.92;11.57;;;;;;;;;;5073643;28;20094;-63
2024/01/27 00:30:17;;;;;;;38.23;10.93;;;;;;;;;;5070826;28;20043;-63
2024/01/27 00:32:42;;;;;;;18.43;7.27;;;;;;;;;;5072720;28;20419;-63
2024/01/27 00:35:09;;;;;;;39.43;12.90;;;;;;;;;;5071675;28;20481;-63
2024/01/27 00:37:34;;;;;;;29.65;9.93;;;;;;;;;;5073274;28;20434;-64
2024/01/27 00:39:59;;;;;;;25.77;11.20;;;;;;;;;;5071952;28;20074;-63
2024/01/27 00:42:25;;;;;;;25.80;8.73;;;;;;;;;;5073158;28;20972;-63
2024/01/27 00:44:50;;;;;;;33.13;10.63;;;;;;;;;;5071358;28;20453;-63
2024/01/27 00:47:15;;;;;;;33.00;10.38;;;;;;;;;;5073176;28;20046;-63
2024/01/27 00:49:41;;;;;;;21.80;9.50;;;;;;;;;;5071020;28;20029;-63
2024/01/27 00:52:06;;;;;;;24.30;11.20;;;;;;;;;;5072254;28;20025;-64
2024/01/27 00:54:31;;;;;;;30.38;9.80;;;;;;;;;;5071521;28;20446;-64
2024/01/27 00:56:56;;;;;;;23.13;9.77;;;;;;;;;;5071320;28;20072;-64
2024/01/27 00:59:21;;;;;;;25.57;8.63;;;;;;;;;;5071592;28;20447;-64
2024/01/27 01:01:47;;;;;;;21.00;8.90;;;;;;;;;;5072468;28;20423;-64
2024/01/27 01:04:12;;;;;;;28.98;11.48;;;;;;;;;;5070662;28;20046;-64
2024/01/27 01:06:39;;;;;;;20.53;8.83;;;;;;;;;;5072659;28;20013;-64
2024/01/27 01:09:04;;;;;;;33.72;10.45;;;;;;;;;;5071360;28;20998;-64
2024/01/27 01:11:29;;;;;;;24.33;9.95;;;;;;;;;;5072186;28;20166;-64
2024/01/27 01:13:54;;;;;;;35.57;10.87;;;;;;;;;;5071053;28;20550;-64
2024/01/27 01:16:20;;;;;;;28.13;9.47;;;;;;;;;;5072497;28;20429;-64
2024/01/27 01:18:45;;;;;;;22.97;7.43;;;;;;;;;;5070402;28;20476;-64
2024/01/27 01:21:10;;;;;;;26.37;8.93;;;;;;;;;;5072467;28;20423;-65
2024/01/27 01:23:35;;;;;;;25.87;10.53;;;;;;;;;;5070560;28;20956;-65
2024/01/27 01:26:00;;;;;;;26.23;8.13;;;;;;;;;;5071311;28;20479;-65
2024/01/27 01:28:26;;;;;;;35.03;9.80;;;;;;;;;;5071246;28;20408;-64
2024/01/27 01:30:51;;;;;;;43.23;11.30;;;;;;;;;;5072507;28;20008;-64
2024/01/27 01:33:16;;;;;;;21.83;9.43;;;;;;;;;;5071185;28;21008;-64
2024/01/27 01:35:41;;;;;;;18.63;7.03;;;;;;;;;;5070384;28;20454;-64
2024/01/27 01:38:06;;;;;;;26.65;11.10;;;;;;;;;;5072110;28;20446;-64
2024/01/27 01:40:32;;;;;;;27.73;12.77;;;;;;;;;;5070324;28;20033;-64
2024/01/27 01:42:58;;;;;;;30.13;9.53;;;;;;;;;;5072197;28;20533;-64
2024/01/27 01:45:23;;;;;;;43.42;12.30;;;;;;;;;;5070389;28;20494;-64
2024/01/27 01:47:48;;;;;;;32.03;13.48;;;;;;;;;;5070965;28;20154;-64
2024/01/27 01:50:14;;;;;;;29.52;10.00;;;;;;;;;;5070607;28;20035;-64
2024/01/27 01:52:39;;;;;;;37.22;12.15;;;;;;;;;;5071617;28;20016;-66
2024/01/27 01:55:05;;;;;;;37.17;14.13;;;;;;;;;;5070130;28;20032;-61
2024/01/27 01:57:30;;;;;;;31.65;11.95;;;;;;;;;;5071719;28;20024;-65
2024/01/27 01:59:55;;;;;;;17.83;8.23;;;;;;;;;;5070355;28;20074;-65
2024/01/27 02:02:21;;;;;;;24.97;9.80;;;;;;;;;;5071317;28;20491;-65
2024/01/27 02:04:46;;;;;;;39.55;10.35;;;;;;;;;;5070181;28;20455;-65
2024/01/27 02:07:11;;;;;;;27.87;11.23;;;;;;;;;;5071461;28;20024;-65
2024/01/27 02:09:36;;;;;;;27.65;9.90;;;;;;;;;;5069730;28;20872;-64
2024/01/27 02:12:02;;;;;;;28.30;11.40;;;;;;;;;;5071411;28;20019;-64
2024/01/27 02:14:27;;;;;;;23.40;9.68;;;;;;;;;;5070064;28;20993;-64
2024/01/27 02:16:55;;;;;;;32.13;10.48;;;;;;;;;;5070751;28;20521;-64
2024/01/27 02:19:21;;;;;;;26.63;9.02;;;;;;;;;;5070075;28;20037;-64
2024/01/27 02:21:46;;;;;;;33.17;12.53;;;;;;;;;;5070911;28;20099;-64
2024/01/27 02:24:11;;;;;;;39.23;11.97;;;;;;;;;;5069557;28;20546;-64
2024/01/27 02:26:36;;;;;;;35.67;14.63;;;;;;;;;;5070932;28;20988;-64
2024/01/27 02:29:01;;;;;;;34.40;12.88;;;;;;;;;;5069694;28;20442;-64
2024/01/27 02:31:27;;;;;;;30.95;10.50;;;;;;;;;;5070947;28;20013;-64
2024/01/27 02:33:52;;;;;;;30.73;11.37;;;;;;;;;;5069557;28;20044;-64
2024/01/27 02:36:17;;;;;;;26.27;10.85;;;;;;;;;;5070738;28;20459;-64
2024/01/27 02:38:42;;;;;;;12.68;10.05;;;;;;;;;;5069137;28;20146;-64
2024/01/27 02:41:09;;;;;;;36.80;13.67;;;;;;;;;;5071085;28;20387;-64
2024/01/27 02:43:34;;;;;;;32.30;11.05;;;;;;;;;;5069491;28;20451;-64
2024/01/27 02:45:59;;;;;;;23.48;10.40;;;;;;;;;;5070371;28;20012;-65
2024/01/27 02:48:24;;;;;;;25.67;10.90;;;;;;;;;;5069489;28;20020;-64
2024/01/27 02:50:49;;;;;;;24.47;11.77;;;;;;;;;;5070678;28;20422;-63
2024/01/27 02:53:15;;;;;;;24.93;9.57;;;;;;;;;;5069350;28;20434;-62
2024/01/27 02:55:40;;;;;;;37.35;11.07;;;;;;;;;;5070274;28;20423;-63
2024/01/27 02:58:05;;;;;;;14.82;9.15;;;;;;;;;;5071087;28;20459;-63
2024/01/27 03:00:30;;;;;;;27.88;12.35;;;;;;;;;;5069525;28;20063;-62
2024/01/27 03:02:58;;;;;;;27.77;12.47;;;;;;;;;;5069842;28;20107;-63
2024/01/27 03:05:23;;;;;;;23.92;9.25;;;;;;;;;;5069330;28;20474;-63
2024/01/27 03:07:48;;;;;;;21.88;9.98;;;;;;;;;;5070721;28;20102;-63
2024/01/27 03:10:13;;;;;;;21.70;11.27;;;;;;;;;;5069356;28;20028;-63
2024/01/27 03:12:39;;;;;;;21.03;11.27;;;;;;;;;;5070389;28;20415;-63
2024/01/27 03:15:04;;;;;;;22.93;11.27;;;;;;;;;;5069514;28;20477;-63
2024/01/27 03:17:29;;;;;;;35.53;12.80;;;;;;;;;;5074572;28;20418;-63
2024/01/27 03:19:54;;;;;;;16.80;8.80;;;;;;;;;;5073162;28;20053;-63
2024/01/27 03:22:20;;;;;;;18.45;10.75;;;;;;;;;;5075057;28;21008;-63
2024/01/27 03:24:45;;;;;;;13.97;9.13;;;;;;;;;;5072731;28;20029;-64
2024/01/27 03:27:10;;;;;;;18.98;9.55;;;;;;;;;;5075161;28;20798;-63
2024/01/27 03:29:35;;;;;;;27.53;12.43;;;;;;;;;;5072961;28;20037;-63
2024/01/27 03:32:00;;;;;;;28.75;11.60;;;;;;;;;;5054131;28;20786;-64
2024/01/27 03:34:27;;;;;;;34.60;12.33;;;;;;;;;;5053085;28;20040;-64
2024/01/27 03:36:52;;;;;;;26.98;13.55;;;;;;;;;;5054309;28;20447;-64
2024/01/27 03:39:17;;;;;;;29.83;12.00;;;;;;;;;;5052229;28;20118;-64
2024/01/27 03:41:42;;;;;;;29.67;13.30;;;;;;;;;;5054118;28;20429;-62
2024/01/27 03:44:07;;;;;;;23.08;11.93;;;;;;;;;;5053165;28;20452;-63
2024/01/27 03:46:33;;;;;;;29.90;11.73;;;;;;;;;;5053815;28;20090;-63
2024/01/27 03:48:58;;;;;;;28.95;13.23;;;;;;;;;;5052919;28;20550;-63
2024/01/27 03:51:25;;;;;;;21.67;10.33;;;;;;;;;;5054341;28;20457;-64
2024/01/27 03:53:50;;;;;;;25.85;16.73;;;;;;;;;;5052215;28;20462;-64
2024/01/27 03:56:15;;;;;;;43.13;14.93;;;;;;;;;;5053854;28;20531;-63
2024/01/27 03:58:41;;;;;;;35.47;13.35;;;;;;;;;;5052515;28;20505;-61
2024/01/27 04:01:06;;;;;;;31.98;13.10;;;;;;;;;;5053882;28;20108;-63
2024/01/27 04:03:31;;;;;;;41.70;14.20;;;;;;;;;;5052901;28;20471;-63
2024/01/27 04:05:56;;;;;;;30.85;13.55;;;;;;;;;;5053721;28;20511;-63
2024/01/27 04:08:21;;;;;;;17.57;12.30;;;;;;;;;;5052067;28;20021;-62
2024/01/27 04:10:47;;;;;;;32.38;12.18;;;;;;;;;;5053755;28;20412;-62
2024/01/27 04:13:12;;;;;;;24.10;11.38;;;;;;;;;;5053685;28;20063;-62
2024/01/27 04:15:38;;;;;;;31.58;15.77;;;;;;;;;;5051690;28;20048;-62
2024/01/27 04:18:04;;;;;;;29.38;12.52;;;;;;;;;;5053750;28;20032;-63
2024/01/27 04:20:29;;;;;;;53.63;20.00;;;;;;;;;;5052249;28;20508;-63
2024/01/27 04:22:54;;;;;;;44.00;18.77;;;;;;;;;;5052987;28;20047;-63
2024/01/27 04:25:20;;;;;;;25.10;18.30;;;;;;;;;;5052163;28;20498;-62
2024/01/27 04:27:45;;;;;;;50.65;16.20;;;;;;;;;;5052058;28;20434;-63
2024/01/27 04:30:11;;;;;;;34.35;15.18;;;;;;;;;;5059670;28;20476;-63
2024/01/27 04:32:36;;;;;;;37.42;16.38;;;;;;;;;;5073489;28;20025;-63
2024/01/27 04:35:03;;;;;;;36.80;15.93;;;;;;;;;;5071860;28;20086;-63
2024/01/27 04:37:28;;;;;;;40.50;16.02;;;;;;;;;;5072769;28;21043;-63
2024/01/27 04:39:53;;;;;;;27.35;12.50;;;;;;;;;;5071847;28;20032;-63
2024/01/27 04:42:18;;;;;;;25.83;16.37;;;;;;;;;;5073284;28;20740;-63
2024/01/27 04:44:43;;;;;;;37.30;14.70;;;;;;;;;;5071135;28;20480;-63
2024/01/27 04:47:08;;;;;;;26.50;14.20;;;;;;;;;;5073195;28;20450;-63
2024/01/27 04:49:34;;;;;;;29.17;15.77;;;;;;;;;;5071796;28;20454;-62
2024/01/27 04:51:59;;;;;;;31.90;12.67;;;;;;;;;;5072453;28;20441;-62
2024/01/27 04:54:25;;;;;;;32.27;14.17;;;;;;;;;;5071683;28;20439;-62
2024/01/27 04:56:50;;;;;;;39.75;13.68;;;;;;;;;;5073029;28;20865;-62
2024/01/27 04:59:15;;;;;;;33.33;14.13;;;;;;;;;;5070586;28;20410;-62
2024/01/27 05:01:43;;;;;;;31.52;16.77;;;;;;;;;;5072957;28;20067;-62
2024/01/27 05:04:09;;;;;;;29.60;15.73;;;;;;;;;;5071359;28;20039;-63
2024/01/27 05:06:34;;;;;;;26.73;14.43;;;;;;;;;;5072617;28;20016;-63
2024/01/27 05:08:59;;;;;;;39.47;15.48;;;;;;;;;;5070257;28;20451;-62
2024/01/27 05:11:25;;;;;;;31.00;16.08;;;;;;;;;;5072558;28;20008;-63
2024/01/27 05:13:50;;;;;;;41.78;15.38;;;;;;;;;;5070601;28;20071;-62
2024/01/27 05:16:15;;;;;;;28.60;13.43;;;;;;;;;;5071809;28;20028;-63
2024/01/27 05:18:40;;;;;;;27.83;17.13;;;;;;;;;;5071085;28;20628;-62
2024/01/27 05:21:05;;;;;;;34.92;15.27;;;;;;;;;;5072418;28;20431;-62
2024/01/27 05:23:31;;;;;;;30.23;15.37;;;;;;;;;;5070835;28;20017;-62
2024/01/27 05:25:56;;;;;;;39.10;14.57;;;;;;;;;;5072109;28;20442;-62
2024/01/27 05:28:21;;;;;;;33.17;13.77;;;;;;;;;;5071053;28;20017;-61
2024/01/27 05:30:46;;;;;;;28.40;16.08;;;;;;;;;;5071656;28;20442;-62
2024/01/27 05:33:11;;;;;;;26.87;14.33;;;;;;;;;;5072352;28;20558;-62
2024/01/27 05:35:37;;;;;;;30.85;15.77;;;;;;;;;;5068547;28;20454;-62
2024/01/27 05:38:02;;;;;;;28.73;16.77;;;;;;;;;;5070129;28;20028;-62
2024/01/27 05:40:27;;;;;;;28.27;13.98;;;;;;;;;;5070635;28;20056;-62
2024/01/27 05:42:52;;;;;;;38.13;15.93;;;;;;;;;;5071857;28;20103;-62
2024/01/27 05:45:18;;;;;;;37.17;18.30;;;;;;;;;;5067687;28;20477;-62
2024/01/27 05:47:43;;;;;;;77.72;17.08;;;;;;;;;;5071303;28;20442;-62
2024/01/27 05:50:08;;;;;;;40.47;20.17;;;;;;;;;;5069789;28;20086;-62
2024/01/27 05:52:34;;;;;;;37.47;19.00;;;;;;;;;;5070196;28;20451;-62
2024/01/27 05:54:59;;;;;;;38.97;15.80;;;;;;;;;;5069129;28;20033;-62
2024/01/27 05:57:25;;;;;;;35.83;18.30;;;;;;;;;;5071107;28;20069;-64
2024/01/27 05:59:50;;;;;;;35.43;17.67;;;;;;;;;;5067855;28;21046;-62
2024/01/27 06:02:17;;;;;;;34.50;18.48;;;;;;;;;;5071110;28;20425;-62
2024/01/27 06:04:42;;;;;;;27.35;20.23;;;;;;;;;;5069614;28;20032;-62
2024/01/27 06:07:08;;;;;;;82.53;28.77;;;;;;;;;;5069900;28;20009;-62
2024/01/27 06:09:33;;;;;;;52.37;22.57;;;;;;;;;;5069776;28;21342;-62
2024/01/27 06:11:59;;;;;;;47.10;20.37;;;;;;;;;;5070735;28;20414;-62
2024/01/27 06:14:24;;;;;;;40.92;25.17;;;;;;;;;;5067973;28;20447;-62
2024/01/27 06:16:51;;;;;;;40.73;21.97;;;;;;;;;;5070180;28;20027;-62
2024/01/27 06:19:16;;;;;;;43.28;26.08;;;;;;;;;;5069630;28;20447;-62
2024/01/27 06:21:41;;;;;;;49.70;24.70;;;;;;;;;;5069482;28;20081;-64
2024/01/27 06:24:06;;;;;;;37.13;25.37;;;;;;;;;;5068995;28;20461;-62
2024/01/27 06:26:31;;;;;;;43.55;26.15;;;;;;;;;;5070955;28;20793;-62
2024/01/27 06:28:57;;;;;;;54.17;25.30;;;;;;;;;;5068038;28;20036;-62
2024/01/27 06:31:22;;;;;;;46.27;25.67;;;;;;;;;;5070737;28;20490;-61
2024/01/27 06:33:47;;;;;;;43.40;28.73;;;;;;;;;;5069202;28;20453;-61
2024/01/27 06:36:12;;;;;;;39.60;27.33;;;;;;;;;;5069119;28;20472;-62
2024/01/27 06:38:37;;;;;;;48.60;27.27;;;;;;;;;;5068675;28;20462;-62
2024/01/27 06:41:03;;;;;;;43.50;26.07;;;;;;;;;;5070893;28;20411;-62
2024/01/27 06:43:28;;;;;;;66.07;28.98;;;;;;;;;;5067917;28;20975;-62
2024/01/27 06:45:54;;;;;;;54.63;27.50;;;;;;;;;;5069376;28;20029;-61
2024/01/27 06:48:20;;;;;;;47.17;29.02;;;;;;;;;;5068985;28;20450;-61
2024/01/27 06:50:45;;;;;;;50.15;27.75;;;;;;;;;;5068599;28;20017;-61
2024/01/27 06:53:10;;;;;;;58.90;28.87;;;;;;;;;;5070387;28;20539;-61
2024/01/27 06:55:35;;;;;;;35.83;25.30;;;;;;;;;;5068730;28;20459;-60
2024/01/27 06:58:00;;;;;;;42.40;26.23;;;;;;;;;;5069234;28;20142;-60
2024/01/27 07:00:26;;;;;;;67.73;28.07;;;;;;;;;;5068751;28;20454;-61
2024/01/27 07:02:52;;;;;;;47.03;27.65;;;;;;;;;;5070535;28;20782;-60
2024/01/27 07:05:17;;;;;;;41.97;26.23;;;;;;;;;;5067636;28;20041;-61
2024/01/27 07:07:42;;;;;;;35.08;25.95;;;;;;;;;;5069902;28;20415;-61
2024/01/27 07:10:07;;;;;;;46.97;26.67;;;;;;;;;;5081223;28;20039;-62
2024/01/27 07:12:33;;;;;;;55.17;26.42;;;;;;;;;;5088986;28;20530;-62
2024/01/27 07:14:59;;;;;;;42.33;27.42;;;;;;;;;;5088135;28;20033;-62
2024/01/27 07:17:24;;;;;;;46.67;26.70;;;;;;;;;;5087328;28;20056;-58
2024/01/27 07:19:50;;;;;;;35.75;25.00;;;;;;;;;;5067674;28;20121;-58
2024/01/27 07:22:15;;;;;;;42.03;24.30;;;;;;;;;;5069903;28;20021;-58
2024/01/27 07:24:41;;;;;;;42.30;22.97;;;;;;;;;;5068614;28;20451;-59
2024/01/27 07:27:06;;;;;;;46.22;24.70;;;;;;;;;;5069112;28;20450;-58
2024/01/27 07:29:31;;;;;;;48.13;25.67;;;;;;;;;;5068218;28;20109;-58
2024/01/27 07:31:56;;;;;;;44.60;24.07;;;;;;;;;;5070037;28;20501;-58
2024/01/27 07:34:22;;;;;;;45.23;25.13;;;;;;;;;;5068624;28;20453;-58
2024/01/27 07:36:49;;;;;;;38.10;26.35;;;;;;;;;;5068747;28;20831;-58
2024/01/27 07:39:14;;;;;;;37.58;24.85;;;;;;;;;;5068313;28;20499;-58
2024/01/27 07:41:39;;;;;;;31.77;24.58;;;;;;;;;;5069974;28;20073;-58
2024/01/27 07:44:11;;;;;;;36.17;25.63;;;;;;;;;;5066916;28;20024;-58
2024/01/27 07:46:40;;;;;;;50.65;29.05;;;;;;;;;;5069543;28;20546;-58
2024/01/27 07:49:06;;;;;;;39.50;25.50;;;;;;;;;;5068034;28;20040;-64
2024/01/27 07:51:31;;;;;;;42.83;23.23;;;;;;;;;;5069384;28;20025;-59
2024/01/27 07:53:56;;;;;;;63.10;27.83;;;;;;;;;;5068476;28;20032;-59
2024/01/27 07:56:21;;;;;;;44.63;27.40;;;;;;;;;;5069705;28;20021;-59
2024/01/27 07:58:47;;;;;;;44.60;26.40;;;;;;;;;;5067514;28;20455;-59
2024/01/27 08:01:15;;;;;;;43.88;28.27;;;;;;;;;;5070349;28;20965;-59
2024/01/27 08:03:41;;;;;;;49.72;29.15;;;;;;;;;;5071935;28;20552;-59
2024/01/27 08:06:09;;;;;;;43.10;28.13;;;;;;;;;;5073065;28;20099;-59
2024/01/27 08:08:34;;;;;;;31.83;22.50;;;;;;;;;;5070697;28;20095;-61
2024/01/27 08:10:59;;;;;;;43.28;27.08;;;;;;;;;;5077516;28;20027;-60
2024/01/27 08:13:24;;;;;;;35.63;25.83;;;;;;;;;;5071410;28;20028;-60
2024/01/27 08:15:50;;;;;;;41.73;29.17;;;;;;;;;;5072979;28;20412;-59
2024/01/27 08:18:15;;;;;;;43.13;27.70;;;;;;;;;;5071666;28;20431;-58
2024/01/27 08:20:40;;;;;;;44.03;29.23;;;;;;;;;;5072732;28;20442;-59
2024/01/27 08:23:05;;;;;;;56.50;27.73;;;;;;;;;;5073156;28;20773;-59
2024/01/27 08:25:30;;;;;;;47.53;30.00;;;;;;;;;;5071658;28;20462;-59
2024/01/27 08:27:55;;;;;;;46.70;27.10;;;;;;;;;;5071273;28;20444;-59
2024/01/27 08:30:21;;;;;;;38.13;26.60;;;;;;;;;;5071199;28;20457;-59
2024/01/27 08:32:46;;;;;;;41.17;26.50;;;;;;;;;;5071208;28;20836;-59
2024/01/27 08:35:11;;;;;;;40.70;27.23;;;;;;;;;;5069739;28;20047;-59
2024/01/27 08:37:38;;;;;;;41.37;25.00;;;;;;;;;;5072665;28;20999;-59
2024/01/27 08:40:04;;;;;;;44.90;25.73;;;;;;;;;;5070354;28;20566;-59
2024/01/27 08:42:30;;;;;;;30.63;24.20;;;;;;;;;;5072637;28;20009;-59
2024/01/27 08:44:55;;;;;;;42.90;26.57;;;;;;;;;;5070982;28;20403;-59
2024/01/27 08:47:21;;;;;;;37.65;28.00;;;;;;;;;;5072887;28;20552;-59
2024/01/27 08:49:46;;;;;;;35.63;24.35;;;;;;;;;;5070099;28;20063;-59
2024/01/27 08:52:12;;;;;;;44.87;27.00;;;;;;;;;;5072172;28;20063;-59
2024/01/27 08:54:37;;;;;;;39.27;22.00;;;;;;;;;;5070864;28;21050;-59
2024/01/27 08:57:02;;;;;;;59.27;22.90;;;;;;;;;;5072394;28;20427;-59
2024/01/27 08:59:27;;;;;;;41.97;20.98;;;;;;;;;;5070568;28;20921;-59
2024/01/27 09:01:52;;;;;;;26.35;18.52;;;;;;;;;;5071820;28;20029;-58
2024/01/27 09:04:18;;;;;;;35.50;19.33;;;;;;;;;;5070504;28;20474;-59
2024/01/27 09:06:43;;;;;;;29.08;19.92;;;;;;;;;;5071807;28;20474;-59
2024/01/27 09:09:08;;;;;;;32.90;20.20;;;;;;;;;;5069686;28;20063;-58
2024/01/27 09:11:34;;;;;;;32.77;18.57;;;;;;;;;;5070129;28;20427;-59
2024/01/27 09:13:59;;;;;;;23.77;15.88;;;;;;;;;;5068124;28;20477;-59
2024/01/27 09:16:24;;;;;;;27.80;15.97;;;;;;;;;;5069990;28;20095;-59
2024/01/27 09:18:52;;;;;;;29.87;18.10;;;;;;;;;;5068504;28;20451;-59
2024/01/27 09:21:20;;;;;;;31.48;15.93;;;;;;;;;;5070745;28;20407;-58
2024/01/27 09:23:45;;;;;;;32.47;17.40;;;;;;;;;;5068997;28;20044;-59
2024/01/27 09:26:12;;;;;;;31.65;18.30;;;;;;;;;;5071009;28;20036;-59
2024/01/27 09:28:37;;;;;;;40.72;15.98;;;;;;;;;;5070337;28;20150;-59
2024/01/27 09:31:02;;;;;;;23.55;14.25;;;;;;;;;;5072332;28;20423;-59
2024/01/27 09:33:27;;;;;;;28.88;14.35;;;;;;;;;;5070297;28;20369;-59
2024/01/27 09:35:53;;;;;;;15.73;13.60;;;;;;;;;;5071467;28;20009;-59
2024/01/27 09:38:18;;;;;;;26.30;15.48;;;;;;;;;;5070158;28;20502;-59
2024/01/27 09:40:43;;;;;;;21.60;14.23;;;;;;;;;;5071097;28;20178;-59
2024/01/27 09:43:12;;;;;;;24.17;15.43;;;;;;;;;;5071382;28;20059;-59
2024/01/27 09:45:37;;;;;;;22.13;12.63;;;;;;;;;;5070109;28;20036;-59
2024/01/27 09:48:04;;;;;;;18.57;14.93;;;;;;;;;;5071222;28;20028;-59
2024/01/27 09:50:29;;;;;;;18.15;12.93;;;;;;;;;;5070149;28;20446;-59
2024/01/27 09:52:54;;;;;;;32.15;14.27;;;;;;;;;;5071115;28;20033;-59
2024/01/27 09:55:19;;;;;;;19.75;11.95;;;;;;;;;;5069726;28;20032;-59
2024/01/27 09:57:46;;;;;;;24.67;14.25;;;;;;;;;;5071258;28;20073;-59
2024/01/27 10:00:11;;;;;;;19.58;12.38;;;;;;;;;;5070081;28;20047;-59
2024/01/27 10:02:38;;;;;;;26.10;13.80;;;;;;;;;;5071236;28;20431;-59
2024/01/27 10:05:05;;;;;;;37.20;14.98;;;;;;;;;;5069659;28;20242;-59
2024/01/27 10:07:31;;;;;;;20.98;11.57;;;;;;;;;;5071286;28;20025;-59
2024/01/27 10:09:56;;;;;;;15.90;9.85;;;;;;;;;;5069590;28;20032;-59
2024/01/27 10:12:22;;;;;;;18.63;11.97;;;;;;;;;;5069893;28;20009;-60
2024/01/27 10:14:48;;;;;;;22.35;12.93;;;;;;;;;;5069007;28;20451;-59
2024/01/27 10:17:23;;;;;;;17.00;11.35;;;;;;;;;;5070334;28;20503;-59
2024/01/27 10:19:59;;;;;;;21.33;10.65;;;;;;;;;;5069348;28;20036;-59
2024/01/27 10:22:26;;;;;;;21.52;12.30;;;;;;;;;;5071161;28;20500;-59
2024/01/27 10:24:51;;;;;;;21.25;9.07;;;;;;;;;;5069076;28;20453;-59
2024/01/27 10:27:16;;;;;;;25.53;12.43;;;;;;;;;;5070962;28;20028;-59
2024/01/27 10:29:51;;;;;;;22.52;10.75;;;;;;;;;;5068311;28;20033;-59
2024/01/27 10:32:17;;;;;;;13.82;10.20;;;;;;;;;;5070361;28;20021;-59
2024/01/27 10:34:42;;;;;;;21.52;11.15;;;;;;;;;;5069285;28;20028;-59
2024/01/27 10:37:07;;;;;;;25.97;12.30;;;;;;;;;;5066495;28;20043;-59
2024/01/27 10:39:32;;;;;;;18.80;9.67;;;;;;;;;;5068217;28;20050;-59
2024/01/27 10:42:00;;;;;;;20.65;11.07;;;;;;;;;;5069242;28;20031;-59
2024/01/27 10:44:28;;;;;;;14.10;9.48;;;;;;;;;;5068882;28;20075;-59
2024/01/27 10:46:53;;;;;;;25.17;12.97;;;;;;;;;;5070375;28;20016;-59
2024/01/27 10:49:19;;;;;;;31.98;14.30;;;;;;;;;;5083074;28;20123;-59
2024/01/27 10:51:45;;;;;;;23.58;13.02;;;;;;;;;;5090599;28;20352;-59
2024/01/27 10:54:13;;;;;;;27.15;11.40;;;;;;;;;;5089547;28;20028;-59
2024/01/27 10:56:39;;;;;;;20.88;13.20;;;;;;;;;;5090156;28;20069;-59
2024/01/27 10:59:08;;;;;;;31.85;14.35;;;;;;;;;;5075452;28;20036;-59
2024/01/27 11:01:34;;;;;;;25.88;14.07;;;;;;;;;;5070223;28;20020;-60
2024/01/27 11:04:00;;;;;;;22.75;12.43;;;;;;;;;;5068724;28;20039;-59
2024/01/27 11:06:26;;;;;;;32.10;11.63;;;;;;;;;;5070316;28;20032;-59
2024/01/27 11:08:52;;;;;;;26.48;12.05;;;;;;;;;;5067910;28;20051;-59
2024/01/27 11:11:18;;;;;;;19.00;11.55;;;;;;;;;;5070266;28;20491;-59
2024/01/27 11:13:45;;;;;;;27.98;11.60;;;;;;;;;;5068648;28;20057;-59
2024/01/27 11:16:17;;;;;;;19.63;10.38;;;;;;;;;;5070412;28;20040;-60
2024/01/27 11:18:43;;;;;;;21.25;10.63;;;;;;;;;;5068189;28;20085;-59
2024/01/27 11:21:12;;;;;;;23.02;11.93;;;;;;;;;;5070598;28;20467;-59
2024/01/27 11:23:37;;;;;;;20.15;12.38;;;;;;;;;;5067475;28;20040;-59
2024/01/27 11:26:04;;;;;;;19.73;11.60;;;;;;;;;;5051794;28;20028;-59
2024/01/27 11:28:29;;;;;;;23.35;12.40;;;;;;;;;;5048616;28;20446;-59
2024/01/27 11:30:54;;;;;;;17.23;10.60;;;;;;;;;;5049344;28;20802;-59
2024/01/27 11:33:19;;;;;;;16.23;12.30;;;;;;;;;;5047881;28;21089;-59
2024/01/27 11:35:44;;;;;;;20.93;10.87;;;;;;;;;;5049933;28;20052;-59
2024/01/27 11:38:09;;;;;;;14.77;10.67;;;;;;;;;;5073667;28;20032;-59
2024/01/27 11:40:44;;;;;;;16.67;9.77;;;;;;;;;;5070653;28;21013;-59
2024/01/27 11:43:12;;;;;;;32.60;10.73;;;;;;;;;;5074134;28;20990;-58
2024/01/27 11:45:37;;;;;;;24.77;12.20;;;;;;;;;;5072722;28;20037;-59
2024/01/27 11:48:02;;;;;;;24.70;12.97;;;;;;;;;;5074030;28;20353;-59
2024/01/27 11:50:28;;;;;;;16.42;10.13;;;;;;;;;;5072753;28;20453;-59
2024/01/27 11:52:53;;;;;;;25.40;10.20;;;;;;;;;;5074142;28;20104;-59
2024/01/27 11:55:19;;;;;;;19.35;10.18;;;;;;;;;;5072320;28;20043;-59
2024/01/27 11:57:44;;;;;;;19.10;8.02;;;;;;;;;;5073947;28;20090;-59
2024/01/27 12:00:10;;;;;;;20.95;10.20;;;;;;;;;;5072089;28;20037;-59
2024/01/27 12:02:36;;;;;;;23.48;13.25;;;;;;;;;;5073524;28;20099;-59
2024/01/27 12:05:01;;;;;;;24.30;11.75;;;;;;;;;;5072663;28;20547;-59
2024/01/27 12:07:27;;;;;;;22.70;11.52;;;;;;;;;;5073612;28;20510;-59
2024/01/27 12:09:52;;;;;;;22.70;9.90;;;;;;;;;;5072010;28;20024;-59
2024/01/27 12:12:17;;;;;;;18.87;9.03;;;;;;;;;;5073704;28;20020;-59
2024/01/27 12:14:50;;;;;;;15.27;9.05;;;;;;;;;;5072105;28;20534;-59
2024/01/27 12:17:15;;;;;;;21.30;9.82;;;;;;;;;;5073365;28;20103;-59
2024/01/27 12:19:50;;;;;;;29.05;11.25;;;;;;;;;;5072218;28;20039;-59
2024/01/27 12:22:21;;;;;;;17.83;9.13;;;;;;;;;;5053693;28;20511;-59
2024/01/27 12:24:46;;;;;;;19.40;8.75;;;;;;;;;;5071264;28;20047;-59
2024/01/27 12:27:12;;;;;;;18.50;9.33;;;;;;;;;;5073401;28;20372;-59
2024/01/27 12:29:37;;;;;;;21.73;10.18;;;;;;;;;;5072055;28;20486;-59
2024/01/27 12:32:02;;;;;;;26.93;10.63;;;;;;;;;;5073388;28;20467;-59
2024/01/27 12:34:28;;;;;;;23.15;10.82;;;;;;;;;;5071222;28;20120;-59
2024/01/27 12:36:54;;;;;;;26.83;10.80;;;;;;;;;;5072037;28;20023;-59
2024/01/27 12:39:20;;;;;;;21.57;10.03;;;;;;;;;;5071733;28;20048;-59
2024/01/27 12:41:45;;;;;;;22.63;9.50;;;;;;;;;;5073074;28;20439;-59
2024/01/27 12:44:10;;;;;;;18.88;9.55;;;;;;;;;;5071511;28;20407;-59
2024/01/27 12:46:36;;;;;;;13.82;9.73;;;;;;;;;;5072502;28;20051;-59
2024/01/27 12:49:03;;;;;;;16.65;9.00;;;;;;;;;;5069341;28;20129;-59
2024/01/27 12:51:28;;;;;;;21.73;10.20;;;;;;;;;;5072892;28;20371;-59
2024/01/27 12:53:53;;;;;;;13.97;6.83;;;;;;;;;;5070486;28;20111;-59
2024/01/27 12:56:18;;;;;;;24.23;9.30;;;;;;;;;;5070832;28;20467;-59
2024/01/27 12:58:43;;;;;;;21.97;9.77;;;;;;;;;;5070512;28;20478;-59
2024/01/27 13:01:09;;;;;;;20.83;12.20;;;;;;;;;;5072594;28;20035;-59
2024/01/27 13:03:34;;;;;;;24.10;9.40;;;;;;;;;;5070400;28;20403;-59
2024/01/27 13:06:00;;;;;;;18.70;9.15;;;;;;;;;;5070860;28;20016;-59
2024/01/27 13:08:25;;;;;;;17.65;6.65;;;;;;;;;;5070464;28;20472;-59
2024/01/27 13:10:50;;;;;;;20.20;12.13;;;;;;;;;;5072454;28;20017;-58
2024/01/27 13:13:16;;;;;;;30.70;9.97;;;;;;;;;;5072649;28;20461;-59
2024/01/27 13:15:41;;;;;;;18.77;7.82;;;;;;;;;;5070034;28;20131;-60
2024/01/27 13:18:06;;;;;;;17.38;7.95;;;;;;;;;;5072923;28;20104;-59
2024/01/27 13:20:32;;;;;;;17.50;8.25;;;;;;;;;;5071022;28;20106;-59
2024/01/27 13:22:58;;;;;;;16.97;7.10;;;;;;;;;;5071971;28;20032;-60
2024/01/27 13:25:23;;;;;;;16.48;7.32;;;;;;;;;;5071102;28;20048;-59
2024/01/27 13:27:48;;;;;;;22.60;8.60;;;;;;;;;;5072423;28;20021;-60
2024/01/27 13:30:14;;;;;;;15.80;6.70;;;;;;;;;;5070705;28;20052;-59
2024/01/27 13:32:39;;;;;;;13.00;6.53;;;;;;;;;;5071907;28;21000;-60
2024/01/27 13:35:05;;;;;;;18.70;7.77;;;;;;;;;;5070960;28;20032;-59
2024/01/27 13:37:33;;;;;;;20.33;7.45;;;;;;;;;;5071824;28;21004;-61
2024/01/27 13:39:58;;;;;;;17.90;6.68;;;;;;;;;;5068786;28;20037;-59
2024/01/27 13:42:24;;;;;;;12.30;6.40;;;;;;;;;;5070700;28;20376;-59
2024/01/27 13:44:49;;;;;;;15.65;7.95;;;;;;;;;;5069757;28;20040;-59
2024/01/27 13:47:14;;;;;;;15.27;7.55;;;;;;;;;;5072025;28;20021;-60
2024/01/27 13:49:40;;;;;;;18.40;7.85;;;;;;;;;;5070236;28;20036;-59
2024/01/27 13:52:05;;;;;;;11.70;6.35;;;;;;;;;;5071360;28;20020;-59
2024/01/27 13:54:31;;;;;;;11.27;6.00;;;;;;;;;;5069094;28;20040;-59
2024/01/27 13:56:56;;;;;;;25.75;8.68;;;;;;;;;;5071739;28;20414;-59
2024/01/27 13:59:21;;;;;;;17.58;6.07;;;;;;;;;;5070104;28;20032;-59
2024/01/27 14:01:47;;;;;;;15.07;7.07;;;;;;;;;;5070897;28;20032;-59
2024/01/27 14:04:12;;;;;;;17.52;7.55;;;;;;;;;;5070206;28;20132;-59
2024/01/27 14:06:37;;;;;;;12.67;6.20;;;;;;;;;;5071140;28;20033;-59
2024/01/27 14:09:02;;;;;;;16.50;6.55;;;;;;;;;;5069821;28;20462;-59
2024/01/27 14:11:28;;;;;;;15.50;7.65;;;;;;;;;;5071565;28;20100;-59